Time;durP1;ratioP1;P1;durP2;ratioP2;P2;SDS_P1;SDS_P2;PMS_P1;PMS_P2;Temp;Humidity;BMP_temperature;BMP_pressure;BME280_temperature;BME280_humidity;BME280_pressure;Samples;Min_cycle;Max_cycle;Signal;HPM_P1;HPM_P2
2023/07/29 00:01:45;;;;;;;4.00;2.75;;;;;;;16.59;56.36;100660.28;4949522;28;20039;-66
2023/07/29 00:04:11;;;;;;;5.10;3.53;;;;;;;16.62;56.13;100660.06;4953751;28;20042;-67
2023/07/29 00:06:37;;;;;;;3.83;2.80;;;;;;;16.64;56.28;100660.78;4950778;28;20125;-69
2023/07/29 00:09:03;;;;;;;6.45;3.08;;;;;;;16.56;56.29;100652.59;4967508;28;20476;-65
2023/07/29 00:11:28;;;;;;;5.45;3.03;;;;;;;16.57;56.53;100647.19;4953336;28;20036;-64
2023/07/29 00:13:54;;;;;;;7.47;4.15;;;;;;;16.53;56.17;100642.22;4967588;28;20654;-64
2023/07/29 00:16:22;;;;;;;8.35;4.38;;;;;;;16.41;56.18;100643.91;4968620;28;20118;-65
2023/07/29 00:18:48;;;;;;;5.53;3.08;;;;;;;16.38;56.46;100639.69;4966335;28;20613;-65
2023/07/29 00:21:13;;;;;;;7.85;3.67;;;;;;;16.42;56.67;100642.97;4951813;28;20027;-65
2023/07/29 00:23:39;;;;;;;5.78;3.55;;;;;;;16.42;56.47;100641.19;4947846;28;20103;-65
2023/07/29 00:26:05;;;;;;;5.85;4.18;;;;;;;16.26;56.69;100637.88;4963464;28;20034;-65
2023/07/29 00:28:30;;;;;;;5.88;3.28;;;;;;;16.22;56.70;100641.69;4963920;28;20030;-65
2023/07/29 00:30:56;;;;;;;9.27;5.47;;;;;;;16.11;56.99;100625.75;4967236;28;20124;-65
2023/07/29 00:33:21;;;;;;;10.88;4.45;;;;;;;16.07;57.29;100629.56;4968480;28;20428;-65
2023/07/29 00:35:47;;;;;;;6.05;4.53;;;;;;;16.05;57.43;100629.63;4967284;28;20050;-65
2023/07/29 00:38:12;;;;;;;8.05;3.60;;;;;;;16.03;57.38;100630.69;4962182;28;20034;-65
2023/07/29 00:40:38;;;;;;;7.25;4.15;;;;;;;16.02;57.60;100635.13;4964529;28;20027;-65
2023/07/29 00:43:04;;;;;;;5.85;4.15;;;;;;;15.95;57.38;100629.41;4951709;28;20618;-65
2023/07/29 00:45:33;;;;;;;8.95;4.35;;;;;;;15.92;57.73;100629.56;4968094;28;20106;-64
2023/07/29 00:48:00;;;;;;;7.28;4.28;;;;;;;15.87;57.69;100626.41;4966360;28;20495;-65
2023/07/29 00:50:27;;;;;;;10.35;4.65;;;;;;;15.86;57.63;100619.44;4968701;28;20133;-64
2023/07/29 00:52:54;;;;;;;6.95;4.63;;;;;;;15.78;57.72;100622.59;4967378;28;20038;-65
2023/07/29 00:55:23;;;;;;;9.32;5.30;;;;;;;15.66;58.14;100617.28;4951877;28;20046;-67
2023/07/29 00:57:51;;;;;;;8.23;4.95;;;;;;;15.59;58.31;100615.06;4950917;28;20027;-65
2023/07/29 01:00:19;;;;;;;11.55;4.88;;;;;;;15.61;57.95;100616.75;4962046;28;20042;-66
2023/07/29 01:02:44;;;;;;;6.88;4.05;;;;;;;15.55;58.35;100603.03;4952410;28;21498;-67
2023/07/29 01:05:14;;;;;;;9.40;4.65;;;;;;;15.49;58.26;100610.50;4948738;28;20538;-67
2023/07/29 01:07:55;;;;;;;6.90;4.50;;;;;;;15.40;58.31;100598.75;4953210;28;20581;-66
2023/07/29 01:10:44;;;;;;;6.65;4.05;;;;;;;15.39;58.76;100599.69;4960004;28;20086;-67
2023/07/29 01:13:13;;;;;;;10.70;4.47;;;;;;;15.39;58.49;100594.44;4946532;28;20035;-67
2023/07/29 01:15:49;;;;;;;7.57;4.22;;;;;;;15.35;58.59;100592.97;4946279;28;20097;-66
2023/07/29 01:18:21;;;;;;;6.85;4.47;;;;;;;15.31;58.82;100592.31;4947745;28;20498;-67
2023/07/29 01:20:48;;;;;;;8.05;5.00;;;;;;;15.30;58.80;100579.22;4947965;28;20554;-66
2023/07/29 01:23:15;;;;;;;8.40;4.95;;;;;;;15.26;58.75;100580.38;4934897;28;20053;-66
2023/07/29 01:25:41;;;;;;;5.57;4.13;;;;;;;15.25;58.93;100576.06;4946766;28;20695;-66
2023/07/29 01:28:06;;;;;;;6.97;3.90;;;;;;;15.23;58.98;100570.88;4951382;28;20034;-66
2023/07/29 01:30:39;;;;;;;5.82;3.47;;;;;;;15.18;58.53;100570.31;4950376;28;20501;-66
2023/07/29 01:33:10;;;;;;;7.90;4.47;;;;;;;15.15;58.80;100574.00;4953221;28;20031;-66
2023/07/29 01:35:50;;;;;;;7.28;4.80;;;;;;;15.11;58.74;100575.13;4965765;28;20543;-66
2023/07/29 01:38:24;;;;;;;9.32;4.72;;;;;;;15.13;58.71;100567.97;4956229;28;20057;-67
2023/07/29 01:40:51;;;;;;;8.05;5.13;;;;;;;15.13;58.88;100572.41;4987077;28;20042;-67
2023/07/29 01:43:18;;;;;;;8.85;4.10;;;;;;;15.16;59.14;100572.19;4970596;28;20081;-67
2023/07/29 01:45:44;;;;;;;7.78;4.82;;;;;;;15.10;58.93;100565.56;4970345;28;20049;-65
2023/07/29 01:48:10;;;;;;;9.73;3.95;;;;;;;15.09;59.06;100566.47;4984709;28;20038;-65
2023/07/29 01:50:35;;;;;;;8.38;5.25;;;;;;;15.06;59.27;100564.06;4967307;28;20725;-66
2023/07/29 01:53:01;;;;;;;8.63;4.90;;;;;;;15.06;59.21;100558.78;4973710;28;20624;-65
2023/07/29 01:55:26;;;;;;;8.52;4.65;;;;;;;15.04;59.11;100552.78;4970202;28;20626;-72
2023/07/29 01:57:53;;;;;;;10.45;5.75;;;;;;;15.03;59.24;100556.34;4986344;28;20637;-71
2023/07/29 02:00:19;;;;;;;9.02;4.97;;;;;;;15.04;59.24;100563.31;4969161;28;20088;-68
2023/07/29 02:02:45;;;;;;;7.10;5.22;;;;;;;15.07;59.22;100563.09;4971096;28;20521;-69
2023/07/29 02:05:11;;;;;;;5.38;4.30;;;;;;;15.21;59.22;100564.84;4971187;28;20085;-68
2023/07/29 02:07:36;;;;;;;8.07;5.65;;;;;;;15.25;59.12;100561.09;4980998;28;20422;-69
2023/07/29 02:10:02;;;;;;;13.35;5.75;;;;;;;15.29;59.57;100565.22;4970676;28;20057;-69
2023/07/29 02:12:27;;;;;;;11.40;6.28;;;;;;;15.40;59.43;100563.69;4970273;28;20112;-66
2023/07/29 02:14:53;;;;;;;9.52;5.90;;;;;;;15.49;59.23;100563.09;4971315;28;20042;-65
2023/07/29 02:17:18;;;;;;;12.45;7.80;;;;;;;15.46;59.06;100553.59;4985109;28;20128;-68
2023/07/29 02:19:44;;;;;;;14.90;8.68;;;;;;;15.28;58.94;100545.13;4954718;28;20552;-68
2023/07/29 02:22:13;;;;;;;12.23;6.18;;;;;;;15.35;59.03;100553.47;4953059;28;20039;-65
2023/07/29 02:24:38;;;;;;;11.48;6.95;;;;;;;15.34;59.36;100543.84;4941508;28;20127;-66
2023/07/29 02:27:04;;;;;;;11.23;7.93;;;;;;;15.33;59.37;100547.44;4951541;28;20129;-66
2023/07/29 02:29:30;;;;;;;11.30;7.47;;;;;;;15.31;59.35;100544.06;4955077;28;20330;-66
2023/07/29 02:31:56;;;;;;;12.27;6.30;;;;;;;15.33;59.39;100543.03;4951733;28;20038;-66
2023/07/29 02:34:21;;;;;;;11.05;6.38;;;;;;;15.39;59.42;100544.38;4949683;28;20735;-66
2023/07/29 02:36:47;;;;;;;12.20;8.50;;;;;;;15.42;59.53;100544.22;4951937;28;20580;-66
2023/07/29 02:39:12;;;;;;;10.20;6.45;;;;;;;15.55;59.43;100544.22;4953334;28;20046;-66
2023/07/29 02:41:38;;;;;;;14.82;7.93;;;;;;;15.59;59.31;100546.59;4951579;28;20498;-66
2023/07/29 02:44:05;;;;;;;13.70;7.78;;;;;;;15.57;59.43;100545.84;4956877;28;20046;-65
2023/07/29 02:46:30;;;;;;;8.35;5.93;;;;;;;15.67;59.44;100540.78;4968604;28;20031;-67
2023/07/29 02:48:56;;;;;;;13.95;8.35;;;;;;;15.62;58.98;100535.00;4964240;28;20481;-65
2023/07/29 02:51:22;;;;;;;12.00;7.53;;;;;;;15.59;58.83;100537.81;4952816;28;20042;-65
2023/07/29 02:53:47;;;;;;;11.77;7.60;;;;;;;15.50;58.85;100536.63;4949645;28;20062;-64
2023/07/29 02:56:13;;;;;;;11.90;7.78;;;;;;;15.41;59.34;100537.25;4955568;28;20034;-64
2023/07/29 02:58:39;;;;;;;13.25;8.52;;;;;;;15.44;59.27;100539.69;4961584;28;20034;-63
2023/07/29 03:01:06;;;;;;;12.60;8.93;;;;;;;15.42;59.31;100538.94;4965831;28;20054;-64
2023/07/29 03:03:32;;;;;;;11.13;6.72;;;;;;;15.45;59.20;100530.81;4949031;28;20486;-64
2023/07/29 03:06:02;;;;;;;11.98;7.95;;;;;;;15.40;59.49;100538.19;4935950;28;20022;-64
2023/07/29 03:08:28;;;;;;;13.00;8.52;;;;;;;15.44;59.60;100539.69;4943511;28;20080;-64
2023/07/29 03:10:54;;;;;;;12.65;7.88;;;;;;;15.47;59.58;100544.75;4949488;28;20553;-69
2023/07/29 03:13:20;;;;;;;12.13;8.20;;;;;;;15.55;59.62;100539.81;4950033;28;20035;-66
2023/07/29 03:15:45;;;;;;;13.40;8.00;;;;;;;15.57;59.28;100545.84;4951154;28;20206;-67
2023/07/29 03:18:11;;;;;;;12.98;8.85;;;;;;;15.50;59.22;100539.25;4952115;28;20098;-66
2023/07/29 03:20:37;;;;;;;11.13;7.82;;;;;;;15.52;59.42;100550.53;4945312;28;20038;-66
2023/07/29 03:23:02;;;;;;;12.90;8.00;;;;;;;15.50;59.57;100549.78;4951809;28;20517;-66
2023/07/29 03:25:28;;;;;;;12.25;7.32;;;;;;;15.51;59.62;100550.66;4965072;28;20026;-66
2023/07/29 03:27:54;;;;;;;15.23;8.60;;;;;;;15.51;59.41;100550.66;4968603;28;20026;-66
2023/07/29 03:30:21;;;;;;;14.65;8.02;;;;;;;15.47;59.40;100551.81;4960186;28;20030;-66
2023/07/29 03:32:48;;;;;;;13.80;8.00;;;;;;;15.48;59.43;100546.44;4969155;28;20056;-66
2023/07/29 03:35:14;;;;;;;9.85;6.75;;;;;;;15.45;58.94;100549.25;4968160;28;20046;-67
2023/07/29 03:37:40;;;;;;;10.68;6.55;;;;;;;15.50;59.14;100554.22;4970754;28;20027;-67
2023/07/29 03:40:07;;;;;;;12.88;8.02;;;;;;;15.48;59.10;100551.72;4972896;28;20065;-66
2023/07/29 03:42:33;;;;;;;14.43;8.45;;;;;;;15.47;59.20;100549.16;4968790;28;20026;-66
2023/07/29 03:44:58;;;;;;;12.43;7.60;;;;;;;15.49;59.12;100545.50;4969010;28;20046;-65
2023/07/29 03:47:24;;;;;;;8.32;6.40;;;;;;;15.44;59.36;100550.22;4953132;28;20034;-65
2023/07/29 03:49:50;;;;;;;14.95;8.50;;;;;;;15.41;59.14;100539.03;4967080;28;20057;-65
2023/07/29 03:52:19;;;;;;;11.07;7.32;;;;;;;15.42;59.09;100541.56;4965257;28;20088;-65
2023/07/29 03:54:45;;;;;;;8.25;6.55;;;;;;;15.40;58.96;100540.84;4969258;28;20547;-64
2023/07/29 03:57:10;;;;;;;11.05;7.32;;;;;;;15.41;58.82;100541.66;4971808;28;20519;-64
2023/07/29 03:59:38;;;;;;;10.82;7.72;;;;;;;15.34;58.97;100533.31;4964375;28;21179;-65
2023/07/29 04:02:04;;;;;;;9.93;6.93;;;;;;;15.34;58.99;100534.16;4968808;28;20030;-64
2023/07/29 04:04:30;;;;;;;7.80;6.30;;;;;;;15.41;58.78;100534.59;4968432;28;20045;-64
2023/07/29 04:06:56;;;;;;;16.52;8.00;;;;;;;15.41;59.08;100531.97;4965298;28;20043;-64
2023/07/29 04:09:21;;;;;;;8.65;6.32;;;;;;;15.40;59.21;100522.41;4966137;28;20077;-68
2023/07/29 04:11:47;;;;;;;9.90;6.65;;;;;;;15.39;59.12;100531.22;4972265;28;20034;-72
2023/07/29 04:14:13;;;;;;;11.60;8.05;;;;;;;15.41;59.17;100524.06;4956326;28;20058;-71
2023/07/29 04:16:38;;;;;;;9.23;6.68;;;;;;;15.44;59.16;100518.63;4951371;28;20322;-68
2023/07/29 04:19:04;;;;;;;9.13;7.35;;;;;;;15.49;58.87;100519.16;4970338;28;20307;-68
2023/07/29 04:21:29;;;;;;;11.48;7.10;;;;;;;15.50;59.05;100512.94;4965676;28;20550;-68
2023/07/29 04:23:55;;;;;;;7.25;5.90;;;;;;;15.57;58.90;100506.31;4969181;28;20065;-68
2023/07/29 04:26:22;;;;;;;10.48;6.75;;;;;;;15.67;58.86;100505.69;4966265;28;20865;-67
2023/07/29 04:28:48;;;;;;;16.40;6.65;;;;;;;15.68;58.71;100500.31;4950808;28;20149;-66
2023/07/29 04:31:13;;;;;;;13.18;7.68;;;;;;;15.63;58.73;100499.78;4970365;28;20137;-67
2023/07/29 04:33:39;;;;;;;13.10;7.80;;;;;;;15.67;58.48;100503.91;4964533;28;20943;-67
2023/07/29 04:36:04;;;;;;;9.95;6.93;;;;;;;15.70;58.30;100498.41;4969877;28;20092;-67
2023/07/29 04:38:32;;;;;;;8.23;6.25;;;;;;;15.78;58.60;100508.44;4966852;28;20100;-66
2023/07/29 04:41:01;;;;;;;10.25;7.38;;;;;;;15.68;58.38;100510.84;4952683;28;20065;-68
2023/07/29 04:43:31;;;;;;;13.35;7.60;;;;;;;15.88;58.11;100509.50;4969291;28;20431;-69
2023/07/29 04:45:56;;;;;;;9.88;6.65;;;;;;;16.07;57.89;100503.84;4948218;28;20042;-70
2023/07/29 04:48:22;;;;;;;12.50;7.32;;;;;;;16.18;57.72;100503.13;4949605;28;20049;-70
2023/07/29 04:50:48;;;;;;;12.88;8.57;;;;;;;16.23;57.40;100505.44;4964810;28;20042;-69
2023/07/29 04:53:13;;;;;;;9.48;6.65;;;;;;;16.28;57.21;100492.75;4971535;28;20448;-69
2023/07/29 04:55:42;;;;;;;10.38;6.68;;;;;;;16.32;56.94;100500.34;4947514;28;20050;-69
2023/07/29 04:58:07;;;;;;;13.65;7.93;;;;;;;16.30;56.36;100494.31;4949357;28;20089;-66
2023/07/29 05:00:33;;;;;;;8.75;6.65;;;;;;;16.43;57.26;100502.22;4946448;28;20054;-67
2023/07/29 05:02:59;;;;;;;11.60;7.22;;;;;;;16.55;56.78;100506.63;4949419;28;20031;-66
2023/07/29 05:05:24;;;;;;;11.27;6.68;;;;;;;16.66;56.74;100500.56;4947958;28;20477;-69
2023/07/29 05:07:50;;;;;;;11.18;6.82;;;;;;;16.73;55.88;100496.56;4931518;28;20034;-67
2023/07/29 05:10:15;;;;;;;11.35;7.90;;;;;;;16.82;55.82;100488.00;4947827;28;20057;-68
2023/07/29 05:12:41;;;;;;;8.85;6.35;;;;;;;16.96;56.03;100494.91;4943816;28;20500;-67
2023/07/29 05:15:07;;;;;;;9.90;7.05;;;;;;;17.35;55.01;100484.16;4950296;28;20568;-68
2023/07/29 05:17:33;;;;;;;11.38;7.20;;;;;;;17.74;53.58;100490.03;4962548;28;20085;-68
2023/07/29 05:19:58;;;;;;;10.85;6.57;;;;;;;17.67;53.68;100491.47;4947901;28;20488;-68
2023/07/29 05:22:24;;;;;;;9.48;6.78;;;;;;;17.50;53.37;100488.31;4948346;28;20062;-67
2023/07/29 05:24:50;;;;;;;9.95;7.20;;;;;;;17.68;53.41;100490.53;4945133;28;20125;-68
2023/07/29 05:27:15;;;;;;;8.52;7.10;;;;;;;18.08;51.83;100482.16;4948160;28;20457;-68
2023/07/29 05:29:41;;;;;;;11.10;6.82;;;;;;;18.94;51.31;100488.59;4957011;28;20058;-67
2023/07/29 05:32:07;;;;;;;11.50;6.90;;;;;;;19.71;49.63;100485.72;4970382;28;20121;-67
2023/07/29 05:34:33;;;;;;;8.55;6.15;;;;;;;20.46;47.40;100481.91;4954172;28;20046;-68
2023/07/29 05:36:58;;;;;;;10.18;6.80;;;;;;;20.09;47.07;100492.19;4964810;28;20703;-68
2023/07/29 05:39:24;;;;;;;9.77;7.07;;;;;;;19.35;47.47;100500.25;4948665;28;20057;-69
2023/07/29 05:41:49;;;;;;;13.10;6.55;;;;;;;18.46;50.24;100501.16;4945839;28;20041;-68
2023/07/29 05:44:15;;;;;;;8.45;6.40;;;;;;;17.63;52.14;100504.94;4947215;28;20065;-68
2023/07/29 05:46:40;;;;;;;8.77;5.40;;;;;;;17.55;53.40;100506.47;4944615;28;20045;-67
2023/07/29 05:49:06;;;;;;;10.48;6.45;;;;;;;17.60;53.13;100515.75;4948484;28;20055;-67
2023/07/29 05:51:32;;;;;;;8.75;6.05;;;;;;;17.63;52.93;100526.06;4949172;28;20038;-67
2023/07/29 05:53:57;;;;;;;8.80;6.28;;;;;;;17.72;52.70;100518.41;4947370;28;20133;-67
2023/07/29 05:56:22;;;;;;;7.05;5.20;;;;;;;17.68;52.34;100511.66;4949940;28;20125;-67
2023/07/29 05:58:50;;;;;;;8.35;6.13;;;;;;;17.56;53.01;100516.94;4945652;28;20532;-68
2023/07/29 06:01:16;;;;;;;9.05;6.53;;;;;;;17.78;52.65;100524.06;4949296;28;20074;-67
2023/07/29 06:03:42;;;;;;;8.35;5.80;;;;;;;17.70;52.27;100513.22;4960127;28;20131;-67
2023/07/29 06:06:08;;;;;;;10.57;6.80;;;;;;;17.44;52.35;100515.16;4947442;28;20105;-67
2023/07/29 06:08:36;;;;;;;11.10;6.38;;;;;;;17.20;53.47;100518.69;4942067;28;20234;-68
2023/07/29 06:11:01;;;;;;;10.65;7.00;;;;;;;17.14;53.54;100513.84;4948130;28;20065;-68
2023/07/29 06:13:27;;;;;;;9.27;6.88;;;;;;;17.10;54.27;100522.94;4968872;28;20136;-67
2023/07/29 06:15:53;;;;;;;8.75;6.53;;;;;;;17.21;53.77;100515.06;4948844;28;20176;-67
2023/07/29 06:18:19;;;;;;;10.30;7.68;;;;;;;16.88;53.81;100515.75;4950717;28;20465;-68
2023/07/29 06:20:45;;;;;;;10.07;7.32;;;;;;;16.82;54.70;100517.03;4950093;28;20046;-69
2023/07/29 06:23:10;;;;;;;10.25;6.53;;;;;;;17.05;54.04;100503.97;4954890;28;20096;-67
2023/07/29 06:25:38;;;;;;;8.10;6.03;;;;;;;17.21;53.65;100508.97;4965805;28;20494;-67
2023/07/29 06:28:04;;;;;;;10.07;6.85;;;;;;;16.50;55.26;100513.19;4974068;28;20543;-68
2023/07/29 06:30:30;;;;;;;9.82;6.32;;;;;;;16.95;53.91;100508.22;4972834;28;20505;-68
2023/07/29 06:32:55;;;;;;;9.75;6.20;;;;;;;17.22;53.39;100513.28;4966084;28;20038;-68
2023/07/29 06:35:21;;;;;;;7.80;5.50;;;;;;;17.36;53.43;100512.28;4970887;28;20489;-67
2023/07/29 06:37:46;;;;;;;9.05;5.55;;;;;;;17.46;53.00;100513.25;4955121;28;20057;-67
2023/07/29 06:40:12;;;;;;;10.50;5.97;;;;;;;17.18;53.33;100511.81;4972732;28;20141;-68
2023/07/29 06:42:37;;;;;;;7.43;4.45;;;;;;;17.73;52.58;100520.09;4969313;28;20034;-67
2023/07/29 06:45:05;;;;;;;6.28;4.38;;;;;;;18.01;51.95;100513.53;4972560;28;20046;-68
2023/07/29 06:47:33;;;;;;;9.35;5.10;;;;;;;17.83;50.86;100513.16;4970023;28;20832;-67
2023/07/29 06:49:58;;;;;;;8.18;4.28;;;;;;;17.59;51.48;100508.75;4971192;28;20031;-67
2023/07/29 06:52:23;;;;;;;7.57;3.67;;;;;;;17.68;51.50;100509.03;4971625;28;20559;-67
2023/07/29 06:54:49;;;;;;;10.68;4.63;;;;;;;18.00;51.09;100511.84;4969966;28;20034;-67
2023/07/29 06:57:14;;;;;;;6.90;3.95;;;;;;;17.73;51.18;100509.50;4956499;28;20080;-67
2023/07/29 06:59:40;;;;;;;6.80;4.07;;;;;;;18.18;51.13;100512.22;4951531;28;20061;-67
2023/07/29 07:02:06;;;;;;;4.88;3.88;;;;;;;18.59;50.50;100508.97;4972398;28;20022;-68
2023/07/29 07:04:32;;;;;;;10.02;4.40;;;;;;;18.75;49.05;100519.19;4972239;28;20066;-68
2023/07/29 07:06:57;;;;;;;7.50;2.90;;;;;;;18.04;50.21;100519.41;4968882;28;20062;-68
2023/07/29 07:09:23;;;;;;;5.97;3.80;;;;;;;17.79;50.42;100514.34;4971674;28;20053;-68
2023/07/29 07:11:48;;;;;;;9.20;4.15;;;;;;;17.94;50.83;100525.53;4972440;28;20038;-67
2023/07/29 07:14:14;;;;;;;5.30;3.35;;;;;;;17.84;51.61;100522.75;4972425;28;20486;-68
2023/07/29 07:16:40;;;;;;;6.55;3.40;;;;;;;18.00;51.39;100517.97;4966866;28;20034;-68
2023/07/29 07:19:06;;;;;;;5.60;2.47;;;;;;;18.83;49.61;100522.06;4970901;28;20038;-68
2023/07/29 07:21:32;;;;;;;6.85;2.25;;;;;;;18.91;48.46;100523.28;4972369;28;20034;-68
2023/07/29 07:23:58;;;;;;;6.28;2.35;;;;;;;18.64;48.35;100521.84;4961575;28;20042;-68
2023/07/29 07:26:23;;;;;;;3.67;2.08;;;;;;;18.46;49.22;100519.69;4985285;28;20456;-68
2023/07/29 07:28:49;;;;;;;3.47;1.67;;;;;;;18.95;47.56;100514.94;4964760;28;20030;-68
2023/07/29 07:31:16;;;;;;;5.63;2.80;;;;;;;18.97;47.36;100515.66;4970513;28;20444;-68
2023/07/29 07:33:41;;;;;;;4.90;2.08;;;;;;;19.85;46.53;100521.66;4983188;28;20044;-68
2023/07/29 07:36:07;;;;;;;4.75;1.98;;;;;;;20.25;44.09;100516.44;4973755;28;20470;-68
2023/07/29 07:38:32;;;;;;;2.90;1.90;;;;;;;21.25;44.50;100523.53;4970088;28;20603;-67
2023/07/29 07:40:58;;;;;;;3.60;1.70;;;;;;;21.39;42.59;100524.09;4970338;28;21399;-68
2023/07/29 07:43:24;;;;;;;4.07;2.72;;;;;;;20.43;43.89;100529.94;4970104;28;20034;-68
2023/07/29 07:45:50;;;;;;;4.50;2.25;;;;;;;18.93;47.20;100521.34;4960334;28;20042;-68
2023/07/29 07:48:16;;;;;;;6.07;2.17;;;;;;;18.88;47.14;100521.72;4951407;28;20030;-69
2023/07/29 07:50:43;;;;;;;3.17;2.10;;;;;;;18.77;48.08;100517.25;4967512;28;20944;-68
2023/07/29 07:53:08;;;;;;;6.05;2.17;;;;;;;18.82;48.39;100514.22;4972494;28;20038;-68
2023/07/29 07:55:34;;;;;;;9.02;3.13;;;;;;;18.69;48.00;100520.50;4951168;28;20994;-68
2023/07/29 07:58:00;;;;;;;5.30;2.10;;;;;;;19.03;47.39;100516.97;4962780;28;20038;-67
2023/07/29 08:00:25;;;;;;;4.63;2.67;;;;;;;19.36;46.34;100515.16;4966754;28;20038;-67
2023/07/29 08:02:50;;;;;;;4.72;1.45;;;;;;;19.64;47.07;100516.38;4963507;28;20568;-67
2023/07/29 08:05:16;;;;;;;5.90;1.45;;;;;;;19.63;47.06;100525.28;4967226;28;20532;-68
2023/07/29 08:07:45;;;;;;;3.33;1.27;;;;;;;19.10;48.66;100523.47;4963388;28;20034;-69
2023/07/29 08:10:10;;;;;;;6.93;2.20;;;;;;;19.46;47.39;100524.03;4955933;28;20077;-68
2023/07/29 08:12:36;;;;;;;2.88;1.77;;;;;;;19.70;45.04;100516.72;4945781;28;20055;-69
2023/07/29 08:15:02;;;;;;;2.60;1.98;;;;;;;19.36;47.16;100509.84;4947631;28;20138;-68
2023/07/29 08:17:28;;;;;;;4.88;2.00;;;;;;;19.75;45.88;100507.50;4945836;28;20034;-68
2023/07/29 08:19:54;;;;;;;2.35;1.73;;;;;;;20.73;44.38;100499.00;4944956;28;20164;-68
2023/07/29 08:22:20;;;;;;;3.20;1.60;;;;;;;20.76;43.35;100497.88;4946487;28;20739;-68
2023/07/29 08:24:46;;;;;;;5.15;1.67;;;;;;;21.96;40.85;100493.94;4947163;28;20589;-67
2023/07/29 08:27:11;;;;;;;3.80;1.73;;;;;;;21.43;42.29;100505.06;4952155;28;20045;-67
2023/07/29 08:29:37;;;;;;;3.45;1.52;;;;;;;20.46;43.09;100503.13;4946924;28;20078;-68
2023/07/29 08:32:03;;;;;;;5.90;1.55;;;;;;;20.83;42.59;100504.31;4949639;28;20083;-68
2023/07/29 08:34:28;;;;;;;4.80;1.08;;;;;;;20.10;44.91;100501.81;4948610;28;20094;-67
2023/07/29 08:36:54;;;;;;;2.75;1.20;;;;;;;20.80;43.01;100500.13;4948445;28;20047;-68
2023/07/29 08:39:19;;;;;;;2.70;1.30;;;;;;;22.58;39.43;100498.69;4952512;28;20414;-67
2023/07/29 08:42:00;;;;;;;1.70;1.00;;;;;;;23.78;37.43;100500.97;4964662;28;20100;-67
2023/07/29 08:44:34;;;;;;;2.72;0.95;;;;;;;24.36;36.11;100498.63;4954744;28;20055;-69
2023/07/29 08:47:00;;;;;;;4.32;1.05;;;;;;;24.86;34.67;100500.47;4944162;28;20077;-68
2023/07/29 08:49:28;;;;;;;2.60;0.90;;;;;;;25.03;34.03;100507.53;4950785;28;20038;-68
2023/07/29 08:51:53;;;;;;;2.65;1.00;;;;;;;24.40;35.14;100516.84;4964481;28;20069;-69
2023/07/29 08:54:19;;;;;;;3.92;0.77;;;;;;;22.24;39.31;100522.44;4963066;28;20058;-68
2023/07/29 08:56:45;;;;;;;4.88;1.13;;;;;;;21.79;40.72;100517.78;4964695;28;20030;-69
2023/07/29 08:59:12;;;;;;;4.13;0.90;;;;;;;20.98;42.79;100523.41;4960446;28;20057;-67
2023/07/29 09:01:41;;;;;;;4.53;0.75;;;;;;;20.89;43.48;100525.91;4960495;28;20127;-68
2023/07/29 09:04:07;;;;;;;5.93;1.40;;;;;;;20.10;44.74;100528.34;4958976;28;20517;-68
2023/07/29 09:06:34;;;;;;;3.22;0.70;;;;;;;21.75;41.24;100518.06;4943478;28;20217;-68
2023/07/29 09:09:01;;;;;;;2.05;0.73;;;;;;;23.18;38.23;100524.81;4947741;28;20048;-67
2023/07/29 09:11:27;;;;;;;2.85;1.08;;;;;;;23.96;35.82;100510.78;4967734;28;20038;-68
2023/07/29 09:13:53;;;;;;;4.70;0.82;;;;;;;24.01;36.94;100520.00;4978949;28;20588;-69
2023/07/29 09:16:20;;;;;;;4.95;1.25;;;;;;;24.56;36.10;100513.41;4967864;28;20070;-68
2023/07/29 09:18:50;;;;;;;3.08;0.80;;;;;;;23.50;37.09;100518.13;4965050;28;20430;-68
2023/07/29 09:21:17;;;;;;;4.85;0.75;;;;;;;24.30;36.50;100517.97;4966941;28;20163;-69
2023/07/29 09:23:44;;;;;;;1.92;0.50;;;;;;;23.28;37.01;100522.13;4963997;28;20026;-69
2023/07/29 09:26:10;;;;;;;2.40;0.90;;;;;;;23.31;38.11;100516.47;4967821;28;20266;-68
2023/07/29 09:28:38;;;;;;;3.90;1.02;;;;;;;24.18;35.50;100520.91;4963748;28;20037;-67
2023/07/29 09:31:04;;;;;;;9.30;0.70;;;;;;;22.75;36.87;100523.75;4949544;28;20128;-67
2023/07/29 09:33:34;;;;;;;3.00;0.47;;;;;;;22.93;36.16;100518.44;4966009;28;20085;-68
2023/07/29 09:36:00;;;;;;;3.97;0.67;;;;;;;22.93;36.11;100513.94;4940714;28;20121;-69
2023/07/29 09:38:27;;;;;;;2.25;0.40;;;;;;;23.45;35.89;100509.75;4967265;28;20030;-67
2023/07/29 09:40:55;;;;;;;1.30;0.57;;;;;;;22.55;37.22;100515.81;4960143;28;21225;-69
2023/07/29 09:43:25;;;;;;;5.15;1.00;;;;;;;22.03;38.76;100504.00;4951103;28;20120;-68
2023/07/29 09:45:52;;;;;;;2.53;0.50;;;;;;;22.42;37.22;100504.69;4962305;28;20855;-68
2023/07/29 09:48:22;;;;;;;1.52;0.75;;;;;;;21.04;39.77;100507.75;4962629;28;20354;-68
2023/07/29 09:50:48;;;;;;;1.88;0.65;;;;;;;21.91;39.54;100503.31;4969878;28;20787;-67
2023/07/29 09:53:14;;;;;;;1.33;0.52;;;;;;;21.77;40.21;100510.78;4970089;28;20114;-67
2023/07/29 09:55:45;;;;;;;4.55;0.70;;;;;;;21.55;39.78;100505.78;4967437;28;20042;-67
2023/07/29 09:58:11;;;;;;;2.13;0.80;;;;;;;21.87;39.55;100508.09;4971583;28;20135;-68
2023/07/29 10:00:38;;;;;;;1.10;0.73;;;;;;;21.31;41.03;100499.06;4949894;28;20682;-69
2023/07/29 10:03:05;;;;;;;2.10;1.10;;;;;;;21.28;40.08;100512.63;4948826;28;20043;-68
2023/07/29 10:05:34;;;;;;;2.10;0.50;;;;;;;21.13;39.82;100509.56;4965241;28;20048;-68
2023/07/29 10:08:01;;;;;;;1.80;0.50;;;;;;;21.15;39.73;100510.28;4969746;28;20072;-68
2023/07/29 10:10:28;;;;;;;2.20;0.98;;;;;;;20.99;40.05;100503.81;4952841;28;20043;-68
2023/07/29 10:12:54;;;;;;;2.90;0.80;;;;;;;21.75;39.10;100510.06;4950452;28;20121;-68
2023/07/29 10:15:20;;;;;;;1.17;0.60;;;;;;;22.87;37.27;100503.03;4950540;28;20042;-70
2023/07/29 10:17:46;;;;;;;1.83;0.65;;;;;;;22.09;38.08;100506.09;4951499;28;20089;-68
2023/07/29 10:20:12;;;;;;;2.28;0.60;;;;;;;21.61;39.43;100499.91;4950756;28;20039;-69
2023/07/29 10:22:39;;;;;;;1.40;0.65;;;;;;;21.07;41.25;100504.81;4949299;28;20569;-69
2023/07/29 10:25:08;;;;;;;2.42;0.80;;;;;;;21.77;38.85;100500.13;4963413;28;20104;-68
2023/07/29 10:27:43;;;;;;;1.50;0.70;;;;;;;21.44;38.90;100497.94;4965674;28;20056;-69
2023/07/29 10:30:10;;;;;;;5.95;0.95;;;;;;;22.69;38.11;100501.19;4954903;28;20085;-68
2023/07/29 10:32:37;;;;;;;1.55;0.68;;;;;;;23.04;36.79;100488.88;4947758;28;20460;-69
2023/07/29 10:35:03;;;;;;;1.33;0.70;;;;;;;23.35;36.94;100489.34;4948838;28;20042;-69
2023/07/29 10:37:29;;;;;;;2.45;0.70;;;;;;;23.24;37.43;100500.22;4949301;28;20035;-68
2023/07/29 10:39:55;;;;;;;8.93;0.73;;;;;;;22.14;39.26;100488.72;4948107;28;20402;-68
2023/07/29 10:42:21;;;;;;;2.65;1.20;;;;;;;23.53;37.42;100494.66;4945685;28;20143;-69
2023/07/29 10:44:51;;;;;;;3.03;1.00;;;;;;;24.50;34.17;100492.69;4945399;28;20532;-69
2023/07/29 10:47:20;;;;;;;2.75;1.30;;;;;;;25.71;33.57;100486.81;4947141;28;20033;-70
2023/07/29 10:49:47;;;;;;;2.90;1.08;;;;;;;24.91;33.29;100486.63;4942124;28;20065;-69
2023/07/29 10:52:27;;;;;;;1.90;0.70;;;;;;;24.60;33.94;100488.06;4945117;28;20050;-69
2023/07/29 10:54:53;;;;;;;5.28;1.20;;;;;;;22.82;36.59;100495.50;4944190;28;21070;-69
2023/07/29 10:57:32;;;;;;;1.85;0.93;;;;;;;22.26;37.84;100491.19;4939721;28;20610;-68
2023/07/29 10:59:58;;;;;;;2.58;0.60;;;;;;;22.72;37.80;100489.41;4957848;28;20512;-69
2023/07/29 11:02:37;;;;;;;3.03;0.75;;;;;;;21.86;38.71;100489.63;4962655;28;20385;-69
2023/07/29 11:05:07;;;;;;;2.95;0.90;;;;;;;22.76;38.06;100485.44;4962681;28;20057;-69
2023/07/29 11:07:53;;;;;;;4.53;0.80;;;;;;;23.97;37.08;100488.47;4939971;28;20089;-69
2023/07/29 11:10:19;;;;;;;1.25;0.68;;;;;;;24.09;35.34;100487.19;4949308;28;20517;-69
2023/07/29 11:12:53;;;;;;;2.05;0.80;;;;;;;22.48;38.21;100488.13;4943964;28;20140;-68
2023/07/29 11:15:22;;;;;;;3.55;1.38;;;;;;;23.40;37.21;100489.72;4957167;28;20046;-69
2023/07/29 11:17:58;;;;;;;1.75;0.60;;;;;;;23.08;36.56;100489.44;4964783;28;20240;-68
2023/07/29 11:20:26;;;;;;;3.97;0.70;;;;;;;24.41;35.34;100477.63;4947176;28;20039;-68